createdAt,value
2023-04-27T00:01:45.218Z,101241.22
2023-04-27T00:04:14.458Z,101236.72
2023-04-27T00:06:42.331Z,101240.38
2023-04-27T00:09:09.701Z,101238.53
2023-04-27T00:11:36.872Z,101236.09
2023-04-27T00:14:04.193Z,101233.31
2023-04-27T00:16:31.439Z,101231.47
2023-04-27T00:18:58.664Z,101227.94
2023-04-27T00:21:25.857Z,101230.50
2023-04-27T00:23:54.155Z,101235.00
2023-04-27T00:26:22.391Z,101236.00
2023-04-27T00:28:49.575Z,101223.31
2023-04-27T00:31:16.786Z,101230.63
2023-04-27T00:33:44.002Z,101228.81
2023-04-27T00:36:11.359Z,101234.16
2023-04-27T00:38:38.571Z,101236.09
2023-04-27T00:41:07.353Z,101239.63
2023-04-27T00:43:45.561Z,101237.91
2023-04-27T00:46:14.462Z,101242.31
2023-04-27T00:48:42.246Z,101247.78
2023-04-27T00:51:09.410Z,101240.59
2023-04-27T00:53:37.342Z,101248.63
2023-04-27T00:56:05.857Z,101240.59
2023-04-27T00:58:33.089Z,101237.06
2023-04-27T01:01:01.119Z,101242.44
2023-04-27T01:03:28.685Z,101251.41
2023-04-27T01:05:56.969Z,101247.78
2023-04-27T01:08:24.604Z,101245.97
2023-04-27T01:10:51.863Z,101251.41
2023-04-27T01:13:19.224Z,101248.88
2023-04-27T01:15:46.388Z,101252.41
2023-04-27T01:18:13.853Z,101247.03
2023-04-27T01:20:42.172Z,101257.88
2023-04-27T01:23:14.263Z,101253.47
2023-04-27T01:25:43.593Z,101261.50
2023-04-27T01:28:10.787Z,101260.56
2023-04-27T01:30:37.930Z,101256.06
2023-04-27T01:33:05.193Z,101256.91
2023-04-27T01:35:32.378Z,101260.56
2023-04-27T01:37:59.915Z,101251.78
2023-04-27T01:40:27.145Z,101255.22
2023-04-27T01:42:54.396Z,101270.53
2023-04-27T01:45:21.630Z,101265.94
2023-04-27T01:47:50.811Z,101273.97
2023-04-27T01:50:18.000Z,101267.84
2023-04-27T01:52:45.186Z,101273.22
2023-04-27T01:55:12.371Z,101280.28
2023-04-27T01:57:39.598Z,101279.41
2023-04-27T02:00:07.792Z,101278.44
2023-04-27T02:02:35.107Z,101283.09
2023-04-27T02:05:02.415Z,101283.19
2023-04-27T02:07:29.649Z,101282.22
2023-04-27T02:09:56.851Z,101287.47
2023-04-27T02:12:24.045Z,101288.31
2023-04-27T02:14:51.179Z,101291.00
2023-04-27T02:17:18.387Z,101301.00
2023-04-27T02:19:45.642Z,101295.63
2023-04-27T02:22:12.881Z,101297.34
2023-04-27T02:24:40.267Z,101296.47
2023-04-27T02:27:07.426Z,101299.25
2023-04-27T02:29:38.822Z,101299.25
2023-04-27T02:32:07.494Z,101293.91
2023-04-27T02:34:34.654Z,101298.53
2023-04-27T02:37:01.858Z,101296.56
2023-04-27T02:39:29.157Z,101291.22
2023-04-27T02:41:56.373Z,101297.69
2023-04-27T02:44:23.617Z,101300.47
2023-04-27T02:46:51.287Z,101306.78
2023-04-27T02:49:18.566Z,101299.47
2023-04-27T02:51:45.880Z,101296.78
2023-04-27T02:54:13.058Z,101297.56
2023-04-27T02:56:40.402Z,101305.59
2023-04-27T02:59:07.605Z,101309.25
2023-04-27T03:01:34.796Z,101312.03
2023-04-27T03:04:02.917Z,101314.72
2023-04-27T03:06:30.367Z,101306.78
2023-04-27T03:08:57.642Z,101310.41
2023-04-27T03:11:24.904Z,101310.31
2023-04-27T03:13:52.593Z,101310.41
2023-04-27T03:16:20.640Z,101319.22
2023-04-27T03:18:48.570Z,101318.25
2023-04-27T03:21:16.990Z,101318.47
2023-04-27T03:23:44.176Z,101316.66
2023-04-27T03:26:13.254Z,101327.47
2023-04-27T03:28:40.484Z,101322.13
2023-04-27T03:31:08.677Z,101317.72
2023-04-27T03:33:36.538Z,101320.41
2023-04-27T03:36:04.669Z,101332.84
2023-04-27T03:38:32.162Z,101335.50
2023-04-27T03:40:59.522Z,101337.34
2023-04-27T03:43:27.065Z,101345.25
2023-04-27T03:45:54.340Z,101342.69
2023-04-27T03:48:24.860Z,101340.88
2023-04-27T03:50:52.100Z,101342.81
2023-04-27T03:53:19.584Z,101341.84
2023-04-27T03:55:47.674Z,101338.19
2023-04-27T03:58:14.913Z,101347.22
2023-04-27T04:00:42.180Z,101346.44
2023-04-27T04:03:09.573Z,101344.53
2023-04-27T04:05:37.058Z,101348.06
2023-04-27T04:08:04.374Z,101354.28
2023-04-27T04:10:32.054Z,101350.88
2023-04-27T04:12:59.237Z,101352.66
2023-04-27T04:15:26.453Z,101357.94
2023-04-27T04:17:53.741Z,101361.59
2023-04-27T04:20:21.005Z,101356.31
2023-04-27T04:22:51.399Z,101357.94
2023-04-27T04:25:18.810Z,101366.06
2023-04-27T04:27:46.219Z,101367.16
2023-04-27T04:30:13.712Z,101367.88
2023-04-27T04:32:41.600Z,101363.38
2023-04-27T04:35:09.076Z,101365.22
2023-04-27T04:37:36.521Z,101368.00
2023-04-27T04:40:10.950Z,101367.88
2023-04-27T04:42:39.235Z,101371.63
2023-04-27T04:45:07.326Z,101377.13
2023-04-27T04:47:34.988Z,101377.00
2023-04-27T04:50:02.427Z,101379.59
2023-04-27T04:52:29.788Z,101383.97
2023-04-27T04:54:56.980Z,101377.88
2023-04-27T04:57:24.252Z,101382.34
2023-04-27T04:59:51.469Z,101393.06
2023-04-27T05:02:18.681Z,101388.81
2023-04-27T05:04:46.007Z,101391.50
2023-04-27T05:07:15.009Z,101396.72
2023-04-27T05:09:42.533Z,101398.56
2023-04-27T05:12:09.773Z,101402.84
2023-04-27T05:14:36.983Z,101393.19
2023-04-27T05:17:04.214Z,101394.25
2023-04-27T05:19:31.482Z,101392.56
2023-04-27T05:21:59.248Z,101397.91
2023-04-27T05:24:26.904Z,101394.25
2023-04-27T05:26:54.955Z,101401.25
2023-04-27T05:29:22.759Z,101395.75
2023-04-27T05:31:50.094Z,101395.75
2023-04-27T05:34:17.438Z,101394.69
2023-04-27T05:36:44.826Z,101402.00
2023-04-27T05:39:12.136Z,101400.91
2023-04-27T05:41:39.654Z,101398.34
2023-04-27T05:44:07.247Z,101401.03
2023-04-27T05:46:35.947Z,101394.06
2023-04-27T05:49:05.665Z,101403.59
2023-04-27T05:51:33.582Z,101406.16
2023-04-27T05:54:02.063Z,101403.50
2023-04-27T05:56:29.325Z,101407.88
2023-04-27T05:58:56.685Z,101406.03
2023-04-27T06:01:24.018Z,101408.84
2023-04-27T06:03:51.509Z,101411.53
2023-04-27T06:06:21.251Z,101417.63
2023-04-27T06:08:48.416Z,101420.22
2023-04-27T06:11:16.422Z,101421.19
2023-04-27T06:13:43.610Z,101419.34
2023-04-27T06:16:10.960Z,101423.75
2023-04-27T06:18:38.268Z,101429.09
2023-04-27T06:21:05.555Z,101428.34
2023-04-27T06:23:32.811Z,101430.94
2023-04-27T06:26:00.126Z,101431.00
2023-04-27T06:28:27.471Z,101432.84
2023-04-27T06:30:55.235Z,101435.53
2023-04-27T06:33:22.457Z,101433.81
2023-04-27T06:35:49.728Z,101431.91
2023-04-27T06:38:16.964Z,101430.94
2023-04-27T06:40:44.993Z,101433.59
2023-04-27T06:43:12.586Z,101436.16
2023-04-27T06:45:40.058Z,101432.53
2023-04-27T06:48:07.341Z,101435.22
2023-04-27T06:50:34.785Z,101430.72
2023-04-27T06:53:01.957Z,101436.84
2023-04-27T06:55:29.124Z,101435.72
2023-04-27T06:57:56.341Z,101437.69
2023-04-27T07:00:23.599Z,101441.63
2023-04-27T07:02:51.655Z,101440.44
2023-04-27T07:05:19.099Z,101442.06
2023-04-27T07:07:46.360Z,101446.13
2023-04-27T07:10:13.566Z,101443.56
2023-04-27T07:12:41.849Z,101442.59
2023-04-27T07:15:09.539Z,101447.97
2023-04-27T07:17:36.742Z,101446.88
2023-04-27T07:20:06.054Z,101443.47
2023-04-27T07:22:33.769Z,101447.00
2023-04-27T07:25:00.970Z,101448.91
2023-04-27T07:27:28.227Z,101450.75
2023-04-27T07:29:55.528Z,101454.28
2023-04-27T07:32:22.829Z,101441.94
2023-04-27T07:34:53.916Z,101448.06
2023-04-27T07:37:22.396Z,101455.88
2023-04-27T07:39:50.465Z,101450.44
2023-04-27T07:42:18.420Z,101449.75
2023-04-27T07:44:45.661Z,101453.19
2023-04-27T07:47:13.272Z,101455.03
2023-04-27T07:49:40.491Z,101456.75
2023-04-27T07:52:08.302Z,101457.59
2023-04-27T07:54:36.018Z,101465.63
2023-04-27T07:57:09.390Z,101460.41
2023-04-27T07:59:36.657Z,101463.94
2023-04-27T08:02:18.424Z,101467.59
2023-04-27T08:04:47.319Z,101467.38
2023-04-27T08:07:16.656Z,101465.53
2023-04-27T08:09:44.624Z,101469.94
2023-04-27T08:12:11.821Z,101462.00
2023-04-27T08:14:39.004Z,101465.63
2023-04-27T08:17:06.313Z,101471.00
2023-04-27T08:19:33.831Z,101471.00
2023-04-27T08:22:01.411Z,101467.59
2023-04-27T08:24:28.659Z,101471.97
2023-04-27T08:26:55.909Z,101471.13
2023-04-27T08:29:27.775Z,101471.13
2023-04-27T08:31:58.222Z,101478.31
2023-04-27T08:34:28.296Z,101476.56
2023-04-27T08:36:56.533Z,101480.13
2023-04-27T08:39:24.252Z,101481.94
2023-04-27T08:41:51.729Z,101484.63
2023-04-27T08:44:18.931Z,101476.56
2023-04-27T08:46:46.357Z,101483.75
2023-04-27T08:49:15.978Z,101474.88
2023-04-27T08:51:44.598Z,101476.56
2023-04-27T08:54:11.842Z,101475.63
2023-04-27T08:56:39.623Z,101472.19
2023-04-27T08:59:15.380Z,101475.63
2023-04-27T09:01:48.540Z,101473.69
2023-04-27T09:04:17.741Z,101470.91
2023-04-27T09:06:45.235Z,101471.00
2023-04-27T09:09:23.411Z,101459.31
2023-04-27T09:11:51.270Z,101461.03
2023-04-27T09:14:22.907Z,101466.41
2023-04-27T09:16:58.051Z,101474.31
2023-04-27T09:19:29.371Z,101470.78
2023-04-27T09:22:08.200Z,101468.00
2023-04-27T09:24:35.848Z,101467.25
2023-04-27T09:27:03.400Z,101468.22
2023-04-27T09:29:37.853Z,101468.31
2023-04-27T09:32:23.014Z,101464.69
2023-04-27T09:34:50.308Z,101471.97
2023-04-27T09:37:19.563Z,101477.13
2023-04-27T09:39:47.127Z,101468.31
2023-04-27T09:42:15.814Z,101463.94
2023-04-27T09:44:43.008Z,101465.63
2023-04-27T09:47:11.689Z,101458.34
2023-04-27T09:49:38.926Z,101462.09
2023-04-27T09:52:06.253Z,101455.66
2023-04-27T09:54:35.270Z,101444.94
2023-04-27T09:57:19.038Z,101453.84
2023-04-27T10:00:23.617Z,101446.66
2023-04-27T10:03:20.320Z,101449.25
2023-04-27T10:06:25.208Z,101446.44
2023-04-27T10:08:52.508Z,101444.59
2023-04-27T10:11:19.906Z,101445.38
2023-04-27T10:13:54.895Z,101436.47
2023-04-27T10:16:22.820Z,101440.78
2023-04-27T10:18:55.130Z,101437.03
2023-04-27T10:21:23.721Z,101441.63
2023-04-27T10:23:52.200Z,101442.41
2023-04-27T10:26:23.962Z,101438.97
2023-04-27T10:29:19.503Z,101438.09
2023-04-27T10:31:48.941Z,101438.97
2023-04-27T10:34:23.672Z,101436.28
2023-04-27T10:36:50.926Z,101437.13
2023-04-27T10:39:19.965Z,101440.66
2023-04-27T10:41:53.967Z,101428.88
2023-04-27T10:44:27.198Z,101435.94
2023-04-27T10:46:56.120Z,101432.41
2023-04-27T10:49:23.756Z,101437.66
2023-04-27T10:51:51.801Z,101430.47
2023-04-27T10:54:19.399Z,101428.66
2023-04-27T10:56:47.196Z,101429.41
2023-04-27T10:59:16.609Z,101421.56
2023-04-27T11:01:43.809Z,101430.25
2023-04-27T11:04:11.129Z,101429.50
2023-04-27T11:06:48.012Z,101426.72
2023-04-27T11:09:28.696Z,101425.00
2023-04-27T11:11:55.934Z,101424.13
2023-04-27T11:14:23.181Z,101421.03
2023-04-27T11:16:50.670Z,101423.28
2023-04-27T11:19:17.888Z,101422.84
2023-04-27T11:21:45.177Z,101427.59
2023-04-27T11:24:15.141Z,101436.81
2023-04-27T11:26:42.730Z,101437.03
2023-04-27T11:29:13.865Z,101437.25
2023-04-27T11:31:47.317Z,101444.09
2023-04-27T11:34:36.988Z,101443.88
2023-04-27T11:39:38.794Z,101450.75
2023-04-27T11:42:22.966Z,101448.59
2023-04-27T11:44:57.977Z,101453.75
2023-04-27T11:47:27.523Z,101454.69
2023-04-27T11:49:59.761Z,101453.63
2023-04-27T11:52:34.471Z,101454.47
2023-04-27T11:55:02.605Z,101455.31
2023-04-27T11:57:34.052Z,101463.50
2023-04-27T12:00:10.795Z,101455.44
2023-04-27T12:02:38.765Z,101461.66
2023-04-27T12:05:07.687Z,101455.44
2023-04-27T12:07:35.068Z,101459.97
2023-04-27T12:10:02.344Z,101458.13
2023-04-27T12:12:29.606Z,101458.00
2023-04-27T12:14:57.916Z,101457.16
2023-04-27T12:17:25.221Z,101459.84
2023-04-27T12:19:52.606Z,101456.31
2023-04-27T12:22:20.171Z,101462.53
2023-04-27T12:24:47.982Z,101458.97
2023-04-27T12:27:15.201Z,101457.16
2023-04-27T12:29:42.903Z,101458.97
2023-04-27T12:32:12.592Z,101454.47
2023-04-27T12:34:39.814Z,101454.59
2023-04-27T12:37:07.066Z,101451.06
2023-04-27T12:39:34.383Z,101451.91
2023-04-27T12:42:02.385Z,101440.22
2023-04-27T12:44:29.552Z,101447.41
2023-04-27T12:46:56.918Z,101450.09
2023-04-27T12:49:24.101Z,101459.97
2023-04-27T12:51:52.800Z,101453.53
2023-04-27T12:54:21.203Z,101467.88
2023-04-27T12:56:48.412Z,101451.78
2023-04-27T12:59:16.957Z,101463.28
2023-04-27T13:01:45.856Z,101454.47
2023-04-27T13:04:19.411Z,101467.03
2023-04-27T13:06:47.969Z,101472.31
2023-04-27T13:09:17.375Z,101456.22
2023-04-27T13:11:44.720Z,101459.75
2023-04-27T13:14:15.039Z,101454.59
2023-04-27T13:16:43.275Z,101455.03
2023-04-27T13:19:10.539Z,101456.75
2023-04-27T13:21:38.108Z,101459.53
2023-04-27T13:24:05.933Z,101457.38
2023-04-27T13:26:33.243Z,101450.94
2023-04-27T13:29:01.087Z,101456.09
2023-04-27T13:31:28.789Z,101457.38
2023-04-27T13:33:56.123Z,101455.13
2023-04-27T13:36:24.377Z,101458.47
2023-04-27T13:38:51.866Z,101452.16
2023-04-27T13:41:19.694Z,101456.31
2023-04-27T13:43:46.927Z,101460.81
2023-04-27T13:46:14.289Z,101458.91
2023-04-27T13:48:42.532Z,101458.03
2023-04-27T13:51:10.217Z,101455.34
2023-04-27T13:53:37.385Z,101468.75
2023-04-27T13:56:04.686Z,101454.41
2023-04-27T13:58:32.215Z,101461.59
2023-04-27T14:01:00.318Z,101458.91
2023-04-27T14:03:27.798Z,101451.59
2023-04-27T14:05:55.961Z,101462.31
2023-04-27T14:08:23.207Z,101457.81
2023-04-27T14:10:50.586Z,101453.31
2023-04-27T14:13:18.698Z,101453.13
2023-04-27T14:15:46.725Z,101447.84
2023-04-27T14:18:14.049Z,101450.44
2023-04-27T14:20:42.223Z,101454.81
2023-04-27T14:23:10.616Z,101452.13
2023-04-27T14:25:39.036Z,101456.66
2023-04-27T14:28:07.084Z,101461.38
2023-04-27T14:30:37.711Z,101457.16
2023-04-27T14:33:04.984Z,101454.69
2023-04-27T14:35:35.057Z,101446.16
2023-04-27T14:38:02.591Z,101456.97
2023-04-27T14:40:33.193Z,101453.13
2023-04-27T14:43:00.479Z,101455.13
2023-04-27T14:45:36.631Z,101452.78
2023-04-27T14:48:11.219Z,101453.66
2023-04-27T14:50:38.564Z,101453.75
2023-04-27T14:53:05.971Z,101464.50
2023-04-27T14:55:33.302Z,101459.22
2023-04-27T14:58:00.942Z,101457.38
2023-04-27T15:00:28.258Z,101460.97
2023-04-27T15:02:55.516Z,101477.03
2023-04-27T15:05:22.794Z,101457.19
2023-04-27T15:07:50.147Z,101449.47
2023-04-27T15:10:17.360Z,101441.09
2023-04-27T15:12:45.036Z,101450.09
2023-04-27T15:15:14.960Z,101453.41
2023-04-27T15:17:42.390Z,101447.50
2023-04-27T15:20:11.148Z,101443.66
2023-04-27T15:22:38.354Z,101448.41
2023-04-27T15:25:05.968Z,101438.97
2023-04-27T15:27:33.356Z,101440.56
2023-04-27T15:30:02.481Z,101436.50
2023-04-27T15:32:30.429Z,101431.34
2023-04-27T15:35:00.534Z,101435.09
2023-04-27T15:37:28.569Z,101432.94
2023-04-27T15:39:56.034Z,101430.78
2023-04-27T15:42:24.204Z,101427.69
2023-04-27T15:44:51.678Z,101423.16
2023-04-27T15:47:18.936Z,101424.34
2023-04-27T15:49:56.283Z,101428.41
2023-04-27T15:52:24.601Z,101429.72
2023-04-27T15:54:51.808Z,101425.13
2023-04-27T15:57:19.394Z,101423.16
2023-04-27T15:59:46.682Z,101419.19
2023-04-27T16:02:17.342Z,101418.31
2023-04-27T16:04:44.642Z,101411.88
2023-04-27T16:07:11.865Z,101409.06
2023-04-27T16:09:39.094Z,101408.84
2023-04-27T16:12:06.480Z,101403.28
2023-04-27T16:14:33.695Z,101401.66
2023-04-27T16:17:01.676Z,101397.06
2023-04-27T16:19:28.984Z,101398.88
2023-04-27T16:22:11.159Z,101398.88
2023-04-27T16:24:41.709Z,101393.38
2023-04-27T16:27:09.044Z,101392.44
2023-04-27T16:29:36.653Z,101385.13
2023-04-27T16:32:04.116Z,101388.78
2023-04-27T16:34:31.395Z,101386.94
2023-04-27T16:36:58.615Z,101385.97
2023-04-27T16:39:25.803Z,101385.03
2023-04-27T16:41:53.098Z,101391.25
2023-04-27T16:44:20.482Z,101392.09
2023-04-27T16:46:48.686Z,101392.09
2023-04-27T16:49:16.071Z,101387.69
2023-04-27T16:51:43.550Z,101391.13
2023-04-27T16:54:10.975Z,101390.16
2023-04-27T16:56:38.286Z,101394.69
2023-04-27T16:59:05.535Z,101392.84
2023-04-27T17:01:32.958Z,101384.78
2023-04-27T17:04:03.620Z,101392.84
2023-04-27T17:06:31.101Z,101397.22
2023-04-27T17:08:58.706Z,101400.91
2023-04-27T17:11:26.414Z,101403.44
2023-04-27T17:13:53.669Z,101394.44
2023-04-27T17:16:21.836Z,101396.25
2023-04-27T17:18:49.316Z,101400.66
2023-04-27T17:21:17.369Z,101397.00
2023-04-27T17:23:50.087Z,101397.13
2023-04-27T17:26:19.950Z,101403.44
2023-04-27T17:28:47.751Z,101395.41
2023-04-27T17:31:16.514Z,101397.22
2023-04-27T17:33:46.630Z,101394.56
2023-04-27T17:36:15.051Z,101391.00
2023-04-27T17:38:42.342Z,101384.78
2023-04-27T17:41:09.564Z,101398.09
2023-04-27T17:43:37.760Z,101394.44
2023-04-27T17:46:11.025Z,101392.84
2023-04-27T17:48:38.229Z,101392.00
2023-04-27T17:51:05.450Z,101398.94
2023-04-27T17:53:32.637Z,101396.25
2023-04-27T17:56:00.253Z,101400.91
2023-04-27T17:58:28.059Z,101396.38
2023-04-27T18:00:55.673Z,101405.41
2023-04-27T18:03:23.444Z,101406.13
2023-04-27T18:05:50.821Z,101414.31
2023-04-27T18:08:17.985Z,101410.78
2023-04-27T18:10:45.293Z,101405.63
2023-04-27T18:13:12.969Z,101410.13
2023-04-27T18:15:40.248Z,101406.47
2023-04-27T18:18:07.531Z,101413.69
2023-04-27T18:20:35.338Z,101421.59
2023-04-27T18:23:02.512Z,101423.31
2023-04-27T18:25:29.667Z,101422.59
2023-04-27T18:27:56.894Z,101419.13
2023-04-27T18:30:24.829Z,101420.00
2023-04-27T18:32:52.107Z,101418.28
2023-04-27T18:35:19.683Z,101423.78
2023-04-27T18:37:48.326Z,101430.94
2023-04-27T18:40:18.810Z,101430.09
2023-04-27T18:42:46.018Z,101439.97
2023-04-27T18:45:13.220Z,101436.44
2023-04-27T18:47:40.450Z,101436.44
2023-04-27T18:50:08.189Z,101434.75
2023-04-27T18:52:35.471Z,101441.91
2023-04-27T18:55:03.500Z,101448.16
2023-04-27T18:57:31.234Z,101444.72
2023-04-27T18:59:58.394Z,101447.38
2023-04-27T19:02:25.983Z,101445.69
2023-04-27T19:05:10.437Z,101443.84
2023-04-27T19:07:40.143Z,101444.81
2023-04-27T19:10:08.052Z,101437.72
2023-04-27T19:12:35.887Z,101441.28
2023-04-27T19:15:03.399Z,101448.47
2023-04-27T19:17:31.118Z,101446.63
2023-04-27T19:19:58.636Z,101436.03
2023-04-27T19:22:27.089Z,101442.25
2023-04-27T19:24:54.403Z,101444.31
2023-04-27T19:27:21.992Z,101438.75
2023-04-27T19:29:54.294Z,101447.41
2023-04-27T19:32:25.193Z,101442.25
2023-04-27T19:34:52.831Z,101438.28
2023-04-27T19:37:20.076Z,101443.13
2023-04-27T19:39:47.257Z,101446.44
2023-04-27T19:42:15.316Z,101446.34
2023-04-27T19:44:42.660Z,101444.38
2023-04-27T19:47:12.762Z,101445.28
2023-04-27T19:49:40.366Z,101445.28
2023-04-27T19:52:07.699Z,101441.72
2023-04-27T19:54:37.987Z,101440.63
2023-04-27T19:57:05.256Z,101436.13
2023-04-27T19:59:32.434Z,101435.19
2023-04-27T20:01:59.794Z,101435.19
2023-04-27T20:04:27.453Z,101431.53
2023-04-27T20:06:54.776Z,101434.84
2023-04-27T20:09:24.198Z,101430.53
2023-04-27T20:11:51.456Z,101426.91
2023-04-27T20:14:18.795Z,101428.84
2023-04-27T20:16:46.060Z,101431.41
2023-04-27T20:19:15.336Z,101434.97
2023-04-27T20:21:43.258Z,101427.75
2023-04-27T20:24:10.623Z,101430.31
2023-04-27T20:26:37.863Z,101433.75
2023-04-27T20:29:05.089Z,101423.03
2023-04-27T20:31:32.291Z,101428.41
2023-04-27T20:33:59.477Z,101424.00
2023-04-27T20:36:27.561Z,101432.16
2023-04-27T20:38:54.843Z,101429.59
2023-04-27T20:41:22.058Z,101427.63
2023-04-27T20:43:52.292Z,101424.22
2023-04-27T20:46:19.749Z,101418.75
2023-04-27T20:48:47.318Z,101420.56
2023-04-27T20:51:14.555Z,101423.25
2023-04-27T20:53:41.858Z,101416.19
2023-04-27T20:56:09.099Z,101416.28
2023-04-27T20:58:36.438Z,101421.53
2023-04-27T21:01:03.662Z,101416.19
2023-04-27T21:03:31.408Z,101417.03
2023-04-27T21:05:58.628Z,101415.28
2023-04-27T21:08:26.031Z,101418.97
2023-04-27T21:10:53.229Z,101419.94
2023-04-27T21:13:20.563Z,101417.34
2023-04-27T21:15:47.764Z,101411.03
2023-04-27T21:18:29.039Z,101411.88
2023-04-27T21:20:58.064Z,101408.44
2023-04-27T21:23:25.339Z,101407.59
2023-04-27T21:25:52.517Z,101411.03
2023-04-27T21:28:19.763Z,101408.44
2023-04-27T21:30:47.076Z,101406.75
2023-04-27T21:33:14.324Z,101405.03
2023-04-27T21:35:41.561Z,101402.69
2023-04-27T21:38:08.753Z,101398.94
2023-04-27T21:40:36.112Z,101401.59
2023-04-27T21:43:03.311Z,101405.78
2023-04-27T21:45:30.534Z,101409.53
2023-04-27T21:47:57.715Z,101404.16
2023-04-27T21:50:24.944Z,101404.16
2023-04-27T21:52:52.133Z,101396.03
2023-04-27T21:55:19.278Z,101394.31
2023-04-27T21:57:46.478Z,101399.78
2023-04-27T22:00:14.600Z,101399.00
2023-04-27T22:02:42.482Z,101400.75
2023-04-27T22:05:10.647Z,101403.44
2023-04-27T22:07:38.239Z,101403.53
2023-04-27T22:10:05.877Z,101401.81
2023-04-27T22:12:33.575Z,101395.59
2023-04-27T22:15:00.876Z,101400.34
2023-04-27T22:17:28.208Z,101393.16
2023-04-27T22:19:55.576Z,101402.91
2023-04-27T22:22:22.805Z,101399.38
2023-04-27T22:24:49.976Z,101406.44
2023-04-27T22:27:17.203Z,101406.66
2023-04-27T22:29:44.386Z,101402.19
2023-04-27T22:32:11.641Z,101412.03
2023-04-27T22:34:38.824Z,101407.63
2023-04-27T22:37:06.972Z,101413.97
2023-04-27T22:39:34.364Z,101411.28
2023-04-27T22:42:01.535Z,101408.47
2023-04-27T22:44:28.738Z,101411.16
2023-04-27T22:46:56.171Z,101413.84
2023-04-27T22:49:24.114Z,101416.53
2023-04-27T22:51:51.472Z,101403.31
2023-04-27T22:54:18.746Z,101411.28
2023-04-27T22:56:46.068Z,101410.44
2023-04-27T22:59:13.363Z,101408.66
2023-04-27T23:01:40.603Z,101411.34
2023-04-27T23:04:08.985Z,101397.03
2023-04-27T23:06:36.449Z,101395.19
2023-04-27T23:09:03.753Z,101401.41
2023-04-27T23:11:30.918Z,101397.88
2023-04-27T23:13:58.138Z,101387.22
2023-04-27T23:16:25.808Z,101392.59
2023-04-27T23:18:53.388Z,101386.38
2023-04-27T23:21:20.555Z,101390.69
2023-04-27T23:23:47.747Z,101383.63
2023-04-27T23:26:16.302Z,101386.38
2023-04-27T23:28:44.182Z,101379.13
2023-04-27T23:31:11.752Z,101376.50
2023-04-27T23:33:39.081Z,101379.31
2023-04-27T23:36:06.456Z,101379.31
2023-04-27T23:38:33.652Z,101379.19
2023-04-27T23:41:00.852Z,101371.25
2023-04-27T23:43:28.022Z,101379.31
2023-04-27T23:45:55.775Z,101373.09
2023-04-27T23:48:23.020Z,101373.19
2023-04-27T23:50:54.826Z,101367.81
2023-04-27T23:53:21.976Z,101366.00
2023-04-27T23:55:49.118Z,101361.69
2023-04-27T23:58:16.275Z,101372.31
